createdAt,value
2019-02-17T00:02:04.555Z,124.87
2019-02-17T00:04:33.892Z,126.10
2019-02-17T00:07:03.275Z,116.13
2019-02-17T00:09:34.167Z,120.53
2019-02-17T00:12:03.507Z,117.07
2019-02-17T00:14:32.874Z,114.87
2019-02-17T00:17:03.924Z,114.63
2019-02-17T00:19:33.374Z,116.77
2019-02-17T00:22:02.712Z,124.93
2019-02-17T00:24:32.086Z,120.10
2019-02-17T00:27:01.432Z,145.43
2019-02-17T00:29:30.798Z,149.40
2019-02-17T00:32:00.134Z,164.13
2019-02-17T00:34:29.505Z,153.03
2019-02-17T00:36:58.847Z,143.87
2019-02-17T00:39:28.215Z,146.43
2019-02-17T00:41:57.700Z,157.77
2019-02-17T00:44:27.064Z,157.83
2019-02-17T00:46:56.476Z,159.40
2019-02-17T00:49:26.519Z,167.37
2019-02-17T00:51:55.858Z,154.57
2019-02-17T00:54:25.735Z,154.30
2019-02-17T00:56:55.078Z,175.17
2019-02-17T00:59:24.442Z,131.27
2019-02-17T01:01:53.787Z,122.00
2019-02-17T01:04:23.531Z,115.40
2019-02-17T01:06:52.874Z,82.80
2019-02-17T01:09:22.830Z,80.93
2019-02-17T01:11:52.170Z,63.40
2019-02-17T01:14:21.537Z,51.50
2019-02-17T01:16:50.883Z,45.27
2019-02-17T01:19:20.244Z,47.90
2019-02-17T01:21:49.609Z,48.97
2019-02-17T01:24:18.998Z,47.37
2019-02-17T01:26:48.343Z,45.17
2019-02-17T01:29:20.436Z,41.37
2019-02-17T01:31:48.741Z,40.23
2019-02-17T01:34:18.121Z,52.63
2019-02-17T01:36:47.458Z,50.07
2019-02-17T01:39:16.814Z,52.40
2019-02-17T01:41:46.149Z,54.87
2019-02-17T01:44:15.511Z,57.67
2019-02-17T01:46:44.851Z,66.53
2019-02-17T01:49:14.214Z,66.07
2019-02-17T01:51:43.549Z,55.83
2019-02-17T01:54:12.913Z,58.67
2019-02-17T01:56:42.257Z,64.43
2019-02-17T01:59:11.629Z,60.20
2019-02-17T02:01:40.959Z,57.23
2019-02-17T02:04:10.336Z,58.70
2019-02-17T02:06:39.677Z,62.33
2019-02-17T02:09:09.713Z,55.37
2019-02-17T02:11:39.045Z,54.33
2019-02-17T02:14:08.409Z,46.70
2019-02-17T02:16:38.109Z,53.67
2019-02-17T02:19:07.476Z,59.93
2019-02-17T02:21:36.833Z,57.80
2019-02-17T02:24:06.208Z,50.77
2019-02-17T02:26:35.546Z,66.27
2019-02-17T02:29:04.921Z,48.33
2019-02-17T02:31:34.254Z,55.60
2019-02-17T02:34:03.617Z,48.97
2019-02-17T02:36:32.952Z,96.90
2019-02-17T02:39:02.335Z,54.30
2019-02-17T02:41:34.675Z,95.37
2019-02-17T02:44:02.821Z,84.60
2019-02-17T02:46:32.164Z,108.57
2019-02-17T02:49:01.522Z,47.67
2019-02-17T02:51:30.892Z,40.03
2019-02-17T02:54:00.257Z,43.73
2019-02-17T02:56:29.619Z,40.60
2019-02-17T02:58:58.951Z,40.80
2019-02-17T03:01:28.328Z,43.97
2019-02-17T03:03:57.662Z,41.17
2019-02-17T03:06:28.659Z,41.10
2019-02-17T03:08:58.007Z,43.00
2019-02-17T03:11:27.865Z,44.77
2019-02-17T03:13:57.150Z,41.57
2019-02-17T03:16:26.508Z,42.93
2019-02-17T03:18:55.839Z,42.43
2019-02-17T03:21:25.713Z,37.93
2019-02-17T03:23:55.047Z,35.63
2019-02-17T03:26:24.728Z,45.57
2019-02-17T03:28:54.064Z,45.37
2019-02-17T03:31:23.893Z,38.07
2019-02-17T03:33:53.481Z,40.03
2019-02-17T03:36:22.850Z,50.70
2019-02-17T03:38:52.194Z,45.53
2019-02-17T03:41:21.559Z,46.07
2019-02-17T03:43:50.975Z,40.30
2019-02-17T03:46:21.145Z,42.30
2019-02-17T03:48:50.482Z,44.67
2019-02-17T03:51:19.910Z,43.67
2019-02-17T03:53:49.243Z,47.37
2019-02-17T03:56:18.610Z,45.47
2019-02-17T03:58:47.946Z,46.60
2019-02-17T04:01:17.314Z,39.70
2019-02-17T04:03:46.731Z,48.60
2019-02-17T04:06:16.109Z,41.83
2019-02-17T04:08:45.436Z,39.50
2019-02-17T04:11:14.802Z,42.30
2019-02-17T04:13:44.141Z,60.90
2019-02-17T04:16:13.501Z,42.53
2019-02-17T04:18:42.837Z,48.33
2019-02-17T04:21:12.271Z,38.90
2019-02-17T04:23:41.620Z,41.50
2019-02-17T04:26:11.000Z,42.50
2019-02-17T04:28:40.341Z,39.17
2019-02-17T04:31:09.700Z,36.00
2019-02-17T04:33:39.044Z,36.50
2019-02-17T04:36:08.419Z,37.13
2019-02-17T04:38:37.756Z,36.43
2019-02-17T04:41:07.121Z,41.10
2019-02-17T04:43:36.452Z,36.47
2019-02-17T04:46:05.820Z,41.57
2019-02-17T04:48:35.153Z,48.17
2019-02-17T04:51:04.522Z,31.80
2019-02-17T04:53:33.850Z,40.37
2019-02-17T04:56:03.233Z,41.83
2019-02-17T04:58:32.580Z,36.53
2019-02-17T05:01:01.932Z,38.93
2019-02-17T05:03:31.317Z,42.83
2019-02-17T05:06:00.686Z,39.93
2019-02-17T05:08:30.013Z,48.60
2019-02-17T05:10:59.457Z,42.33
2019-02-17T05:13:28.827Z,39.83
2019-02-17T05:15:58.168Z,40.23
2019-02-17T05:18:27.504Z,44.60
2019-02-17T05:20:56.841Z,41.33
2019-02-17T05:23:26.201Z,39.30
2019-02-17T05:25:55.541Z,37.87
2019-02-17T05:28:24.907Z,37.77
2019-02-17T05:30:54.242Z,59.17
2019-02-17T05:33:23.614Z,53.50
2019-02-17T05:35:53.497Z,35.47
2019-02-17T05:38:22.891Z,50.97
2019-02-17T05:40:52.199Z,36.10
2019-02-17T05:43:21.576Z,53.63
2019-02-17T05:45:50.907Z,55.73
2019-02-17T05:48:20.272Z,77.70
2019-02-17T05:50:49.876Z,82.93
2019-02-17T05:53:19.408Z,99.27
2019-02-17T05:55:49.611Z,55.00
2019-02-17T05:58:18.992Z,50.37
2019-02-17T06:00:48.401Z,51.07
2019-02-17T06:03:17.779Z,55.13
2019-02-17T06:05:47.179Z,52.47
2019-02-17T06:08:16.550Z,53.43
2019-02-17T06:10:45.881Z,51.23
2019-02-17T06:13:15.268Z,55.80
2019-02-17T06:15:44.590Z,69.20
2019-02-17T06:18:14.019Z,50.30
2019-02-17T06:20:43.344Z,51.23
2019-02-17T06:23:13.376Z,50.53
2019-02-17T06:25:42.716Z,47.80
2019-02-17T06:28:12.074Z,48.77
2019-02-17T06:30:41.416Z,47.87
2019-02-17T06:33:10.778Z,40.60
2019-02-17T06:35:40.152Z,39.67
2019-02-17T06:38:09.509Z,46.07
2019-02-17T06:40:38.847Z,40.40
2019-02-17T06:43:08.205Z,43.43
2019-02-17T06:45:37.538Z,39.67
2019-02-17T06:48:06.907Z,41.93
2019-02-17T06:50:36.244Z,38.73
2019-02-17T06:53:05.597Z,43.80
2019-02-17T06:55:45.429Z,37.90
2019-02-17T06:58:14.793Z,40.73
2019-02-17T07:00:45.075Z,49.70
2019-02-17T07:03:14.583Z,53.87
2019-02-17T07:05:45.582Z,67.00
2019-02-17T07:08:15.029Z,77.10
2019-02-17T07:10:44.344Z,84.43
2019-02-17T07:13:13.782Z,86.90
2019-02-17T07:15:43.134Z,352.60
2019-02-17T07:18:12.501Z,509.13
2019-02-17T07:20:41.843Z,365.07
2019-02-17T07:23:11.233Z,89.20
2019-02-17T07:25:40.534Z,86.53
2019-02-17T07:28:09.902Z,87.23
2019-02-17T07:30:39.238Z,76.97
2019-02-17T07:33:08.640Z,71.60
2019-02-17T07:35:37.947Z,83.73
2019-02-17T07:38:07.310Z,81.67
2019-02-17T07:40:36.642Z,69.60
2019-02-17T07:43:06.026Z,77.73
2019-02-17T07:45:35.371Z,66.00
2019-02-17T07:48:04.754Z,131.23
2019-02-17T07:50:34.110Z,67.90
2019-02-17T07:53:03.447Z,62.43
2019-02-17T07:55:32.818Z,57.63
2019-02-17T07:58:02.140Z,66.83
2019-02-17T08:00:31.502Z,61.40
2019-02-17T08:03:00.833Z,68.60
2019-02-17T08:05:30.194Z,64.40
2019-02-17T08:07:59.527Z,57.97
2019-02-17T08:10:28.893Z,58.20
2019-02-17T08:12:58.223Z,49.70
2019-02-17T08:15:27.617Z,68.47
2019-02-17T08:17:56.934Z,76.43
2019-02-17T08:20:26.450Z,81.73
2019-02-17T08:22:55.782Z,88.37
2019-02-17T08:25:25.638Z,69.40
2019-02-17T08:27:54.964Z,56.20
2019-02-17T08:30:24.323Z,63.73
2019-02-17T08:32:53.648Z,53.37
2019-02-17T08:35:23.479Z,55.13
2019-02-17T08:37:52.821Z,69.17
2019-02-17T08:40:22.665Z,49.90
2019-02-17T08:42:51.990Z,54.57
2019-02-17T08:45:21.365Z,58.83
2019-02-17T08:47:50.698Z,69.77
2019-02-17T08:50:20.281Z,85.80
2019-02-17T08:52:49.570Z,87.57
2019-02-17T08:55:18.941Z,87.23
2019-02-17T08:57:48.278Z,81.23
2019-02-17T09:00:17.639Z,59.40
2019-02-17T09:02:46.975Z,52.30
2019-02-17T09:05:16.328Z,51.70
2019-02-17T09:07:45.667Z,80.80
2019-02-17T09:10:15.033Z,52.00
2019-02-17T09:12:44.373Z,57.87
2019-02-17T09:15:13.731Z,54.00
2019-02-17T09:17:43.073Z,116.47
2019-02-17T09:20:12.440Z,61.67
2019-02-17T09:22:41.774Z,47.93
2019-02-17T09:25:11.813Z,45.77
2019-02-17T09:27:41.184Z,45.63
2019-02-17T09:30:15.393Z,56.93
2019-02-17T09:32:44.737Z,50.77
2019-02-17T09:35:14.111Z,51.67
2019-02-17T09:37:43.458Z,46.33
2019-02-17T09:40:13.167Z,50.87
2019-02-17T09:42:42.510Z,52.77
2019-02-17T09:45:13.818Z,111.10
2019-02-17T09:47:43.158Z,47.03
2019-02-17T09:50:15.369Z,47.30
2019-02-17T09:52:44.727Z,47.50
2019-02-17T09:55:14.090Z,43.17
2019-02-17T09:57:43.435Z,41.83
2019-02-17T10:00:15.010Z,45.33
2019-02-17T10:02:44.354Z,38.50
2019-02-17T10:05:13.785Z,46.50
2019-02-17T10:07:43.129Z,44.90
2019-02-17T10:10:14.433Z,45.90
2019-02-17T10:12:43.771Z,45.30
2019-02-17T10:15:13.685Z,41.20
2019-02-17T10:17:43.022Z,40.27
2019-02-17T10:20:15.864Z,42.00
2019-02-17T10:22:45.193Z,43.23
2019-02-17T10:25:14.569Z,44.10
2019-02-17T10:27:43.934Z,44.83
2019-02-17T10:30:14.735Z,42.13
2019-02-17T10:32:44.101Z,46.30
2019-02-17T10:35:13.493Z,43.53
2019-02-17T10:37:42.864Z,49.80
2019-02-17T10:40:14.797Z,120.27
2019-02-17T10:42:44.244Z,123.60
2019-02-17T10:45:13.701Z,72.43
2019-02-17T10:47:43.053Z,42.50
2019-02-17T10:50:12.827Z,40.43
2019-02-17T10:52:42.281Z,101.90
2019-02-17T10:55:12.959Z,39.97
2019-02-17T10:57:42.343Z,110.10
2019-02-17T11:00:14.792Z,51.07
2019-02-17T11:02:47.183Z,40.80
2019-02-17T11:05:15.351Z,42.73
2019-02-17T11:07:44.712Z,39.20
2019-02-17T11:10:14.394Z,43.17
2019-02-17T11:12:43.764Z,45.23
2019-02-17T11:15:20.075Z,37.20
2019-02-17T11:17:49.438Z,39.87
2019-02-17T11:20:18.789Z,43.77
2019-02-17T11:22:48.152Z,45.83
2019-02-17T11:25:17.498Z,38.87
2019-02-17T11:27:46.867Z,41.90
2019-02-17T11:30:20.822Z,58.67
2019-02-17T11:32:57.739Z,49.97
2019-02-17T11:35:21.222Z,67.17
2019-02-17T11:37:50.840Z,45.87
2019-02-17T11:40:20.178Z,39.60
2019-02-17T11:42:49.549Z,40.60
2019-02-17T11:45:19.334Z,41.73
2019-02-17T11:47:48.698Z,39.00
2019-02-17T11:50:18.050Z,40.53
2019-02-17T11:52:47.415Z,41.83
2019-02-17T11:55:16.754Z,40.73
2019-02-17T11:57:46.119Z,40.07
2019-02-17T12:00:22.179Z,36.43
2019-02-17T12:02:51.543Z,42.63
2019-02-17T12:05:20.889Z,45.80
2019-02-17T12:07:50.261Z,42.80
2019-02-17T12:10:19.607Z,39.23
2019-02-17T12:12:48.978Z,40.17
2019-02-17T12:15:18.316Z,39.27
2019-02-17T12:17:47.684Z,39.80
2019-02-17T12:20:32.066Z,33.33
2019-02-17T12:23:03.071Z,38.10
2019-02-17T12:25:34.047Z,34.33
2019-02-17T12:28:05.059Z,38.37
2019-02-17T12:30:34.389Z,36.97
2019-02-17T12:33:03.757Z,39.83
2019-02-17T12:35:33.095Z,32.40
2019-02-17T12:38:02.455Z,35.70
2019-02-17T12:40:31.797Z,45.07
2019-02-17T12:43:01.163Z,39.23
2019-02-17T12:45:30.507Z,35.77
2019-02-17T12:47:59.881Z,35.23
2019-02-17T12:50:29.227Z,38.60
2019-02-17T12:52:58.603Z,34.73
2019-02-17T12:55:27.944Z,35.60
2019-02-17T12:57:57.783Z,38.50
2019-02-17T13:00:27.151Z,37.73
2019-02-17T13:02:56.529Z,35.70
2019-02-17T13:05:25.917Z,41.77
2019-02-17T13:07:55.255Z,37.73
2019-02-17T13:10:24.642Z,37.73
2019-02-17T13:12:53.991Z,50.83
2019-02-17T13:15:23.907Z,39.00
2019-02-17T13:17:53.421Z,40.60
2019-02-17T13:20:22.790Z,50.00
2019-02-17T13:22:52.139Z,40.90
2019-02-17T13:25:21.509Z,41.50
2019-02-17T13:27:50.852Z,39.00
2019-02-17T13:30:22.633Z,42.13
2019-02-17T13:32:51.964Z,39.17
2019-02-17T13:35:21.322Z,40.23
2019-02-17T13:37:50.661Z,40.50
2019-02-17T13:40:20.102Z,38.70
2019-02-17T13:42:49.443Z,37.57
2019-02-17T13:45:18.815Z,36.53
2019-02-17T13:47:48.154Z,38.10
2019-02-17T13:50:17.700Z,38.03
2019-02-17T13:52:47.043Z,43.00
2019-02-17T13:55:16.416Z,35.87
2019-02-17T13:57:46.052Z,39.30
2019-02-17T14:00:19.811Z,54.43
2019-02-17T14:02:49.157Z,56.77
2019-02-17T14:05:18.522Z,58.80
2019-02-17T14:07:47.867Z,65.60
2019-02-17T14:10:17.234Z,74.43
2019-02-17T14:12:46.572Z,81.77
2019-02-17T14:15:19.588Z,52.37
2019-02-17T14:17:48.936Z,42.60
2019-02-17T14:20:18.311Z,47.70
2019-02-17T14:22:47.650Z,58.70
2019-02-17T14:25:17.040Z,42.60
2019-02-17T14:27:46.368Z,41.43
2019-02-17T14:30:16.784Z,41.97
2019-02-17T14:32:46.123Z,45.10
2019-02-17T14:35:15.490Z,46.80
2019-02-17T14:37:44.833Z,40.17
2019-02-17T14:40:14.535Z,46.60
2019-02-17T14:42:43.881Z,42.60
2019-02-17T14:45:17.059Z,44.47
2019-02-17T14:47:46.415Z,41.73
2019-02-17T14:50:15.787Z,56.17
2019-02-17T14:52:45.130Z,46.37
2019-02-17T14:55:14.502Z,47.40
2019-02-17T14:57:43.842Z,58.87
2019-02-17T15:00:14.665Z,63.70
2019-02-17T15:02:43.993Z,60.90
2019-02-17T15:05:13.362Z,53.90
2019-02-17T15:07:42.708Z,59.03
2019-02-17T15:10:13.203Z,57.63
2019-02-17T15:12:42.547Z,73.83
2019-02-17T15:15:13.259Z,87.20
2019-02-17T15:17:42.594Z,87.47
2019-02-17T15:20:23.721Z,83.13
2019-02-17T15:22:53.061Z,85.17
2019-02-17T15:25:22.623Z,99.47
2019-02-17T15:27:51.971Z,84.63
2019-02-17T15:30:21.401Z,61.23
2019-02-17T15:32:50.767Z,54.73
2019-02-17T15:35:22.332Z,87.63
2019-02-17T15:37:51.141Z,79.87
2019-02-17T15:40:20.814Z,79.33
2019-02-17T15:42:50.145Z,76.77
2019-02-17T15:45:19.525Z,71.37
2019-02-17T15:47:48.873Z,69.97
2019-02-17T15:50:18.243Z,66.17
2019-02-17T15:52:47.602Z,63.90
2019-02-17T15:55:16.938Z,86.23
2019-02-17T15:57:46.309Z,67.77
2019-02-17T16:00:17.755Z,95.97
2019-02-17T16:02:47.116Z,71.53
2019-02-17T16:05:16.468Z,62.33
2019-02-17T16:07:45.825Z,60.40
2019-02-17T16:10:16.401Z,68.20
2019-02-17T16:12:45.767Z,67.47
2019-02-17T16:15:20.880Z,56.17
2019-02-17T16:17:50.244Z,60.97
2019-02-17T16:20:19.580Z,58.47
2019-02-17T16:22:48.944Z,59.77
2019-02-17T16:25:18.277Z,69.87
2019-02-17T16:27:47.647Z,70.63
2019-02-17T16:30:23.431Z,57.83
2019-02-17T16:32:52.799Z,93.70
2019-02-17T16:35:22.139Z,72.20
2019-02-17T16:37:51.579Z,76.37
2019-02-17T16:40:20.917Z,76.50
2019-02-17T16:42:50.284Z,73.73
2019-02-17T16:45:19.617Z,68.17
2019-02-17T16:47:49.151Z,62.13
2019-02-17T16:50:23.635Z,61.13
2019-02-17T16:52:53.338Z,60.73
2019-02-17T16:55:22.681Z,69.90
2019-02-17T16:57:52.046Z,66.63
2019-02-17T17:00:25.308Z,68.83
2019-02-17T17:02:57.744Z,77.03
2019-02-17T17:05:27.067Z,77.13
2019-02-17T17:07:56.431Z,68.07
2019-02-17T17:10:25.849Z,69.20
2019-02-17T17:12:55.482Z,101.33
2019-02-17T17:15:24.821Z,94.83
2019-02-17T17:17:54.635Z,87.63
2019-02-17T17:20:23.979Z,111.30
2019-02-17T17:22:53.350Z,110.90
2019-02-17T17:25:22.696Z,88.33
2019-02-17T17:27:52.439Z,103.27
2019-02-17T17:30:21.768Z,107.20
2019-02-17T17:32:51.136Z,106.57
2019-02-17T17:35:20.792Z,182.70
2019-02-17T17:37:50.158Z,142.73
2019-02-17T17:40:19.512Z,102.47
2019-02-17T17:42:48.873Z,127.57
2019-02-17T17:45:21.991Z,164.53
2019-02-17T17:47:51.382Z,165.07
2019-02-17T17:50:20.785Z,164.70
2019-02-17T17:52:50.156Z,196.03
2019-02-17T17:55:19.519Z,201.57
2019-02-17T17:57:48.890Z,198.57
2019-02-17T18:00:20.731Z,219.87
2019-02-17T18:02:50.091Z,226.60
2019-02-17T18:05:19.455Z,223.37
2019-02-17T18:07:48.827Z,253.60
2019-02-17T18:10:18.207Z,270.53
2019-02-17T18:12:47.594Z,287.77
2019-02-17T18:15:18.295Z,298.87
2019-02-17T18:17:54.648Z,357.67
2019-02-17T18:20:18.786Z,463.20
2019-02-17T18:22:48.150Z,396.37
2019-02-17T18:25:17.532Z,393.87
2019-02-17T18:27:46.910Z,430.63
2019-02-17T18:30:22.642Z,471.57
2019-02-17T18:32:52.045Z,477.50
2019-02-17T18:35:21.385Z,491.10
2019-02-17T18:37:50.838Z,475.70
2019-02-17T18:40:20.586Z,475.30
2019-02-17T18:42:49.936Z,497.57
2019-02-17T18:45:19.318Z,481.93
2019-02-17T18:47:48.651Z,521.77
2019-02-17T18:50:18.856Z,522.97
2019-02-17T18:52:48.208Z,510.57
2019-02-17T18:55:17.578Z,514.90
2019-02-17T18:57:50.864Z,491.50
2019-02-17T19:00:25.590Z,515.93
2019-02-17T19:02:54.938Z,486.70
2019-02-17T19:05:32.045Z,494.20
2019-02-17T19:07:56.833Z,499.50
2019-02-17T19:10:26.215Z,537.10
2019-02-17T19:12:55.568Z,527.83
2019-02-17T19:15:24.946Z,521.53
2019-02-17T19:17:54.284Z,508.43
2019-02-17T19:20:31.458Z,505.10
2019-02-17T19:23:01.485Z,478.67
2019-02-17T19:25:30.864Z,479.50
2019-02-17T19:28:00.211Z,476.60
2019-02-17T19:30:29.592Z,479.37
2019-02-17T19:32:58.947Z,461.63
2019-02-17T19:35:28.322Z,460.47
2019-02-17T19:37:57.669Z,420.57
2019-02-17T19:40:29.891Z,405.20
2019-02-17T19:42:59.237Z,412.33
2019-02-17T19:45:28.616Z,431.17
2019-02-17T19:47:57.954Z,420.90
2019-02-17T19:50:27.602Z,465.87
2019-02-17T19:52:56.949Z,485.87
2019-02-17T19:55:26.322Z,477.17
2019-02-17T19:57:55.674Z,437.77
2019-02-17T20:00:26.094Z,427.30
2019-02-17T20:03:01.605Z,436.87
2019-02-17T20:05:32.614Z,421.43
2019-02-17T20:08:01.967Z,416.13
2019-02-17T20:10:31.345Z,424.03
2019-02-17T20:13:02.325Z,448.37
2019-02-17T20:15:33.354Z,478.80
2019-02-17T20:18:02.706Z,471.13
2019-02-17T20:20:32.079Z,470.83
2019-02-17T20:23:02.709Z,487.67
2019-02-17T20:25:32.089Z,474.93
2019-02-17T20:28:01.446Z,464.87
2019-02-17T20:30:30.802Z,479.50
2019-02-17T20:33:00.166Z,496.77
2019-02-17T20:35:29.523Z,488.10
2019-02-17T20:37:58.867Z,485.00
2019-02-17T20:40:28.241Z,486.70
2019-02-17T20:42:57.587Z,481.30
2019-02-17T20:45:26.953Z,487.37
2019-02-17T20:47:56.298Z,482.57
2019-02-17T20:50:26.088Z,489.53
2019-02-17T20:52:55.439Z,484.93
2019-02-17T20:55:25.168Z,469.57
2019-02-17T20:57:54.543Z,465.53
2019-02-17T21:00:25.713Z,442.43
2019-02-17T21:02:55.144Z,411.70
2019-02-17T21:05:24.591Z,414.83
2019-02-17T21:07:54.195Z,390.70
2019-02-17T21:10:23.927Z,372.43
2019-02-17T21:12:53.303Z,373.77
2019-02-17T21:15:22.921Z,354.93
2019-02-17T21:17:52.288Z,353.93
2019-02-17T21:20:22.406Z,365.70
2019-02-17T21:22:53.073Z,365.33
2019-02-17T21:25:22.600Z,358.33
2019-02-17T21:27:51.975Z,342.67
2019-02-17T21:30:21.322Z,335.97
2019-02-17T21:32:50.696Z,439.17
2019-02-17T21:35:20.055Z,475.80
2019-02-17T21:37:49.428Z,481.00
2019-02-17T21:40:18.943Z,488.50
2019-02-17T21:42:48.315Z,457.33
2019-02-17T21:45:17.666Z,447.77
2019-02-17T21:47:47.035Z,470.53
2019-02-17T21:50:16.384Z,436.67
2019-02-17T21:52:45.761Z,428.37
2019-02-17T21:55:15.287Z,417.03
2019-02-17T21:57:44.670Z,370.33
2019-02-17T22:00:19.918Z,336.63
2019-02-17T22:02:49.319Z,336.17
2019-02-17T22:05:18.831Z,321.13
2019-02-17T22:07:48.198Z,339.00
2019-02-17T22:10:20.890Z,368.20
2019-02-17T22:12:51.257Z,376.43
2019-02-17T22:15:22.314Z,399.50
2019-02-17T22:17:51.698Z,369.13
2019-02-17T22:20:21.044Z,364.53
2019-02-17T22:22:50.493Z,326.67
2019-02-17T22:25:19.842Z,315.47
2019-02-17T22:27:49.219Z,291.10
2019-02-17T22:30:18.577Z,279.73
2019-02-17T22:32:47.959Z,302.17
2019-02-17T22:35:17.330Z,244.90
2019-02-17T22:37:46.701Z,240.63
2019-02-17T22:40:16.218Z,234.83
2019-02-17T22:42:45.590Z,227.20
2019-02-17T22:45:15.104Z,221.33
2019-02-17T22:47:44.475Z,230.13
2019-02-17T22:50:14.465Z,224.27
2019-02-17T22:52:44.974Z,227.23
2019-02-17T22:55:14.602Z,231.73
2019-02-17T22:57:44.035Z,227.23
2019-02-17T23:00:19.481Z,235.87
2019-02-17T23:02:48.856Z,218.73
2019-02-17T23:05:18.191Z,213.40
2019-02-17T23:07:47.577Z,214.30
2019-02-17T23:10:16.919Z,222.23
2019-02-17T23:12:46.286Z,216.10
2019-02-17T23:15:15.633Z,220.57
2019-02-17T23:17:45.001Z,220.47
2019-02-17T23:20:14.347Z,222.17
2019-02-17T23:22:43.718Z,223.30
2019-02-17T23:25:13.058Z,218.40
2019-02-17T23:27:42.426Z,220.90
2019-02-17T23:30:12.139Z,224.00
2019-02-17T23:32:41.526Z,212.80
2019-02-17T23:35:11.466Z,220.47
2019-02-17T23:37:40.844Z,217.57
2019-02-17T23:40:11.256Z,223.57
2019-02-17T23:42:40.600Z,210.83
2019-02-17T23:45:13.707Z,221.73
2019-02-17T23:47:43.060Z,236.47
